sensor_id;sensor_type;location;lat;lon;timestamp;P1;durP1;ratioP1;P2;durP2;ratioP2
4754;SDS011;2391;47.212;7.542;2023-11-19T00:00:53;10.40;;;9.30;;
4754;SDS011;2391;47.212;7.542;2023-11-19T00:03:19;10.87;;;8.83;;
4754;SDS011;2391;47.212;7.542;2023-11-19T00:05:45;11.70;;;8.50;;
4754;SDS011;2391;47.212;7.542;2023-11-19T00:08:11;10.00;;;8.67;;
4754;SDS011;2391;47.212;7.542;2023-11-19T00:10:37;12.60;;;8.90;;
4754;SDS011;2391;47.212;7.542;2023-11-19T00:13:03;13.80;;;9.57;;
4754;SDS011;2391;47.212;7.542;2023-11-19T00:15:28;11.60;;;9.27;;
4754;SDS011;2391;47.212;7.542;2023-11-19T00:17:54;9.63;;;8.63;;
4754;SDS011;2391;47.212;7.542;2023-11-19T00:20:20;10.27;;;8.20;;
4754;SDS011;2391;47.212;7.542;2023-11-19T00:22:49;15.87;;;9.50;;
4754;SDS011;2391;47.212;7.542;2023-11-19T00:25:18;9.30;;;8.07;;
4754;SDS011;2391;47.212;7.542;2023-11-19T00:27:44;11.97;;;8.27;;
4754;SDS011;2391;47.212;7.542;2023-11-19T00:30:10;17.17;;;7.77;;
4754;SDS011;2391;47.212;7.542;2023-11-19T00:32:36;9.73;;;8.47;;
4754;SDS011;2391;47.212;7.542;2023-11-19T00:35:05;10.67;;;8.70;;
4754;SDS011;2391;47.212;7.542;2023-11-19T00:37:31;9.10;;;7.93;;
4754;SDS011;2391;47.212;7.542;2023-11-19T00:39:57;12.40;;;8.07;;
4754;SDS011;2391;47.212;7.542;2023-11-19T00:42:23;12.37;;;9.80;;
4754;SDS011;2391;47.212;7.542;2023-11-19T00:44:50;8.70;;;7.80;;
4754;SDS011;2391;47.212;7.542;2023-11-19T00:47:16;10.33;;;7.70;;
4754;SDS011;2391;47.212;7.542;2023-11-19T00:49:42;9.07;;;7.70;;
4754;SDS011;2391;47.212;7.542;2023-11-19T00:52:08;11.70;;;8.37;;
4754;SDS011;2391;47.212;7.542;2023-11-19T00:54:34;8.50;;;7.70;;
4754;SDS011;2391;47.212;7.542;2023-11-19T00:56:59;8.83;;;7.70;;
4754;SDS011;2391;47.212;7.542;2023-11-19T00:59:26;10.17;;;8.30;;
4754;SDS011;2391;47.212;7.542;2023-11-19T01:01:54;8.10;;;7.40;;
4754;SDS011;2391;47.212;7.542;2023-11-19T01:04:19;8.97;;;8.13;;
4754;SDS011;2391;47.212;7.542;2023-11-19T01:06:45;8.37;;;7.47;;
4754;SDS011;2391;47.212;7.542;2023-11-19T01:09:11;9.60;;;8.33;;
4754;SDS011;2391;47.212;7.542;2023-11-19T01:11:37;8.67;;;7.40;;
4754;SDS011;2391;47.212;7.542;2023-11-19T01:14:02;8.40;;;7.23;;
4754;SDS011;2391;47.212;7.542;2023-11-19T01:16:28;9.10;;;7.50;;
4754;SDS011;2391;47.212;7.542;2023-11-19T01:18:54;10.50;;;8.10;;
4754;SDS011;2391;47.212;7.542;2023-11-19T01:21:20;11.80;;;8.57;;
4754;SDS011;2391;47.212;7.542;2023-11-19T01:23:47;8.67;;;7.40;;
4754;SDS011;2391;47.212;7.542;2023-11-19T01:26:13;9.13;;;7.70;;
4754;SDS011;2391;47.212;7.542;2023-11-19T01:28:39;11.50;;;7.60;;
4754;SDS011;2391;47.212;7.542;2023-11-19T01:31:07;9.30;;;6.97;;
4754;SDS011;2391;47.212;7.542;2023-11-19T01:33:35;8.00;;;7.17;;
4754;SDS011;2391;47.212;7.542;2023-11-19T01:36:02;13.83;;;6.90;;
4754;SDS011;2391;47.212;7.542;2023-11-19T01:38:29;8.17;;;7.37;;
4754;SDS011;2391;47.212;7.542;2023-11-19T01:40:56;8.93;;;7.53;;
4754;SDS011;2391;47.212;7.542;2023-11-19T01:43:35;8.47;;;6.90;;
4754;SDS011;2391;47.212;7.542;2023-11-19T01:46:02;7.43;;;6.67;;
4754;SDS011;2391;47.212;7.542;2023-11-19T01:48:29;8.50;;;6.97;;
4754;SDS011;2391;47.212;7.542;2023-11-19T01:50:56;7.70;;;6.90;;
4754;SDS011;2391;47.212;7.542;2023-11-19T01:53:22;7.90;;;6.47;;
4754;SDS011;2391;47.212;7.542;2023-11-19T01:55:48;6.90;;;6.20;;
4754;SDS011;2391;47.212;7.542;2023-11-19T01:58:15;8.60;;;7.20;;
4754;SDS011;2391;47.212;7.542;2023-11-19T02:00:42;8.33;;;7.10;;
4754;SDS011;2391;47.212;7.542;2023-11-19T02:03:10;7.20;;;6.57;;
4754;SDS011;2391;47.212;7.542;2023-11-19T02:05:37;7.07;;;6.47;;
4754;SDS011;2391;47.212;7.542;2023-11-19T02:08:04;6.90;;;5.40;;
4754;SDS011;2391;47.212;7.542;2023-11-19T02:10:30;7.27;;;6.57;;
4754;SDS011;2391;47.212;7.542;2023-11-19T02:12:57;8.20;;;5.67;;
4754;SDS011;2391;47.212;7.542;2023-11-19T02:15:24;6.17;;;5.67;;
4754;SDS011;2391;47.212;7.542;2023-11-19T02:17:50;6.83;;;6.13;;
4754;SDS011;2391;47.212;7.542;2023-11-19T02:20:16;6.27;;;5.67;;
4754;SDS011;2391;47.212;7.542;2023-11-19T02:22:45;6.57;;;5.97;;
4754;SDS011;2391;47.212;7.542;2023-11-19T02:25:20;6.10;;;5.17;;
4754;SDS011;2391;47.212;7.542;2023-11-19T02:28:01;8.40;;;5.97;;
4754;SDS011;2391;47.212;7.542;2023-11-19T02:30:28;6.20;;;5.60;;
4754;SDS011;2391;47.212;7.542;2023-11-19T02:32:58;6.80;;;6.10;;
4754;SDS011;2391;47.212;7.542;2023-11-19T02:35:26;5.37;;;4.87;;
4754;SDS011;2391;47.212;7.542;2023-11-19T02:37:56;6.63;;;5.30;;
4754;SDS011;2391;47.212;7.542;2023-11-19T02:40:29;7.00;;;5.57;;
4754;SDS011;2391;47.212;7.542;2023-11-19T02:42:55;5.20;;;4.70;;
4754;SDS011;2391;47.212;7.542;2023-11-19T02:45:24;5.60;;;5.10;;
4754;SDS011;2391;47.212;7.542;2023-11-19T02:47:51;5.97;;;5.37;;
4754;SDS011;2391;47.212;7.542;2023-11-19T02:50:18;4.50;;;4.07;;
4754;SDS011;2391;47.212;7.542;2023-11-19T02:52:46;5.20;;;4.70;;
4754;SDS011;2391;47.212;7.542;2023-11-19T02:55:13;5.57;;;4.83;;
4754;SDS011;2391;47.212;7.542;2023-11-19T02:57:39;9.00;;;5.00;;
4754;SDS011;2391;47.212;7.542;2023-11-19T03:00:11;5.33;;;4.73;;
4754;SDS011;2391;47.212;7.542;2023-11-19T03:02:41;5.90;;;5.17;;
4754;SDS011;2391;47.212;7.542;2023-11-19T03:05:14;10.50;;;4.27;;
4754;SDS011;2391;47.212;7.542;2023-11-19T03:07:41;5.10;;;4.70;;
4754;SDS011;2391;47.212;7.542;2023-11-19T03:10:10;4.80;;;4.30;;
4754;SDS011;2391;47.212;7.542;2023-11-19T03:12:43;5.10;;;4.60;;
4754;SDS011;2391;47.212;7.542;2023-11-19T03:15:10;4.70;;;4.30;;
4754;SDS011;2391;47.212;7.542;2023-11-19T03:17:40;4.70;;;4.17;;
4754;SDS011;2391;47.212;7.542;2023-11-19T03:20:06;9.33;;;4.90;;
4754;SDS011;2391;47.212;7.542;2023-11-19T03:22:38;5.10;;;4.60;;
4754;SDS011;2391;47.212;7.542;2023-11-19T03:25:04;5.07;;;4.67;;
4754;SDS011;2391;47.212;7.542;2023-11-19T03:27:30;4.90;;;4.50;;
4754;SDS011;2391;47.212;7.542;2023-11-19T03:29:55;5.30;;;4.60;;
4754;SDS011;2391;47.212;7.542;2023-11-19T03:32:21;5.30;;;4.80;;
4754;SDS011;2391;47.212;7.542;2023-11-19T03:34:47;5.17;;;4.70;;
4754;SDS011;2391;47.212;7.542;2023-11-19T03:37:13;5.13;;;4.70;;
4754;SDS011;2391;47.212;7.542;2023-11-19T03:39:40;5.03;;;4.53;;
4754;SDS011;2391;47.212;7.542;2023-11-19T03:42:06;4.70;;;4.40;;
4754;SDS011;2391;47.212;7.542;2023-11-19T03:44:32;8.63;;;5.40;;
4754;SDS011;2391;47.212;7.542;2023-11-19T03:46:57;4.83;;;4.43;;
4754;SDS011;2391;47.212;7.542;2023-11-19T03:49:23;5.20;;;4.80;;
4754;SDS011;2391;47.212;7.542;2023-11-19T03:51:49;4.67;;;4.27;;
4754;SDS011;2391;47.212;7.542;2023-11-19T03:54:15;4.33;;;4.03;;
4754;SDS011;2391;47.212;7.542;2023-11-19T03:56:41;4.93;;;3.80;;
4754;SDS011;2391;47.212;7.542;2023-11-19T03:59:06;5.37;;;4.87;;
4754;SDS011;2391;47.212;7.542;2023-11-19T04:01:33;4.60;;;4.03;;
4754;SDS011;2391;47.212;7.542;2023-11-19T04:03:59;5.77;;;4.60;;
4754;SDS011;2391;47.212;7.542;2023-11-19T04:06:25;4.73;;;4.30;;
4754;SDS011;2391;47.212;7.542;2023-11-19T04:08:51;4.57;;;4.13;;
4754;SDS011;2391;47.212;7.542;2023-11-19T04:11:17;4.03;;;3.70;;
4754;SDS011;2391;47.212;7.542;2023-11-19T04:13:42;6.40;;;4.63;;
4754;SDS011;2391;47.212;7.542;2023-11-19T04:16:09;7.57;;;4.17;;
4754;SDS011;2391;47.212;7.542;2023-11-19T04:18:35;4.10;;;3.67;;
4754;SDS011;2391;47.212;7.542;2023-11-19T04:21:01;3.77;;;3.43;;
4754;SDS011;2391;47.212;7.542;2023-11-19T04:23:27;4.23;;;3.93;;
4754;SDS011;2391;47.212;7.542;2023-11-19T04:25:52;3.97;;;3.67;;
4754;SDS011;2391;47.212;7.542;2023-11-19T04:28:18;5.13;;;3.80;;
4754;SDS011;2391;47.212;7.542;2023-11-19T04:30:44;3.77;;;3.47;;
4754;SDS011;2391;47.212;7.542;2023-11-19T04:33:10;4.97;;;4.03;;
4754;SDS011;2391;47.212;7.542;2023-11-19T04:35:35;3.30;;;3.03;;
4754;SDS011;2391;47.212;7.542;2023-11-19T04:38:02;5.27;;;2.97;;
4754;SDS011;2391;47.212;7.542;2023-11-19T04:40:27;4.90;;;3.90;;
4754;SDS011;2391;47.212;7.542;2023-11-19T04:42:53;4.20;;;3.90;;
4754;SDS011;2391;47.212;7.542;2023-11-19T04:45:19;4.23;;;3.87;;
4754;SDS011;2391;47.212;7.542;2023-11-19T04:47:45;3.80;;;3.43;;
4754;SDS011;2391;47.212;7.542;2023-11-19T04:50:11;5.37;;;3.60;;
4754;SDS011;2391;47.212;7.542;2023-11-19T04:52:37;5.20;;;4.00;;
4754;SDS011;2391;47.212;7.542;2023-11-19T04:55:05;3.60;;;3.30;;
4754;SDS011;2391;47.212;7.542;2023-11-19T04:57:31;4.17;;;3.77;;
4754;SDS011;2391;47.212;7.542;2023-11-19T04:59:58;5.90;;;3.20;;
4754;SDS011;2391;47.212;7.542;2023-11-19T05:02:24;5.37;;;3.43;;
4754;SDS011;2391;47.212;7.542;2023-11-19T05:04:50;3.00;;;2.80;;
4754;SDS011;2391;47.212;7.542;2023-11-19T05:07:16;4.07;;;3.73;;
4754;SDS011;2391;47.212;7.542;2023-11-19T05:09:41;5.00;;;3.43;;
4754;SDS011;2391;47.212;7.542;2023-11-19T05:12:08;5.33;;;2.67;;
4754;SDS011;2391;47.212;7.542;2023-11-19T05:14:36;4.23;;;3.40;;
4754;SDS011;2391;47.212;7.542;2023-11-19T05:17:01;4.50;;;3.10;;
4754;SDS011;2391;47.212;7.542;2023-11-19T05:19:27;3.70;;;3.40;;
4754;SDS011;2391;47.212;7.542;2023-11-19T05:21:53;3.10;;;2.80;;
4754;SDS011;2391;47.212;7.542;2023-11-19T05:24:19;4.57;;;2.60;;
4754;SDS011;2391;47.212;7.542;2023-11-19T05:26:44;5.00;;;3.07;;
4754;SDS011;2391;47.212;7.542;2023-11-19T05:29:10;3.20;;;2.97;;
4754;SDS011;2391;47.212;7.542;2023-11-19T05:31:36;5.27;;;3.00;;
4754;SDS011;2391;47.212;7.542;2023-11-19T05:34:01;3.10;;;2.80;;
4754;SDS011;2391;47.212;7.542;2023-11-19T05:36:27;2.80;;;2.60;;
4754;SDS011;2391;47.212;7.542;2023-11-19T05:38:54;3.70;;;2.80;;
4754;SDS011;2391;47.212;7.542;2023-11-19T05:41:20;3.93;;;3.00;;
4754;SDS011;2391;47.212;7.542;2023-11-19T05:43:46;4.43;;;2.63;;
4754;SDS011;2391;47.212;7.542;2023-11-19T05:46:12;3.10;;;2.90;;
4754;SDS011;2391;47.212;7.542;2023-11-19T05:48:38;3.83;;;2.93;;
4754;SDS011;2391;47.212;7.542;2023-11-19T05:51:04;2.80;;;2.60;;
4754;SDS011;2391;47.212;7.542;2023-11-19T05:53:31;3.27;;;2.97;;
4754;SDS011;2391;47.212;7.542;2023-11-19T05:55:57;7.30;;;3.00;;
4754;SDS011;2391;47.212;7.542;2023-11-19T05:58:23;3.30;;;3.00;;
4754;SDS011;2391;47.212;7.542;2023-11-19T06:00:51;2.80;;;2.60;;
4754;SDS011;2391;47.212;7.542;2023-11-19T06:03:17;2.80;;;2.60;;
4754;SDS011;2391;47.212;7.542;2023-11-19T06:05:46;2.83;;;2.63;;
4754;SDS011;2391;47.212;7.542;2023-11-19T06:08:12;2.80;;;2.60;;
4754;SDS011;2391;47.212;7.542;2023-11-19T06:10:39;3.17;;;2.87;;
4754;SDS011;2391;47.212;7.542;2023-11-19T06:13:05;3.17;;;2.87;;
4754;SDS011;2391;47.212;7.542;2023-11-19T06:15:32;3.97;;;2.33;;
4754;SDS011;2391;47.212;7.542;2023-11-19T06:17:58;4.30;;;2.50;;
4754;SDS011;2391;47.212;7.542;2023-11-19T06:20:33;2.43;;;2.20;;
4754;SDS011;2391;47.212;7.542;2023-11-19T06:22:57;4.00;;;2.80;;
4754;SDS011;2391;47.212;7.542;2023-11-19T06:25:23;2.53;;;2.33;;
4754;SDS011;2391;47.212;7.542;2023-11-19T06:27:49;3.60;;;3.27;;
4754;SDS011;2391;47.212;7.542;2023-11-19T06:30:16;3.33;;;3.13;;
4754;SDS011;2391;47.212;7.542;2023-11-19T06:32:42;3.50;;;3.30;;
4754;SDS011;2391;47.212;7.542;2023-11-19T06:35:08;4.53;;;2.93;;
4754;SDS011;2391;47.212;7.542;2023-11-19T06:37:35;4.13;;;2.70;;
4754;SDS011;2391;47.212;7.542;2023-11-19T06:40:02;2.83;;;2.63;;
4754;SDS011;2391;47.212;7.542;2023-11-19T06:42:30;3.67;;;3.03;;
4754;SDS011;2391;47.212;7.542;2023-11-19T06:44:56;3.07;;;2.80;;
4754;SDS011;2391;47.212;7.542;2023-11-19T06:47:25;2.97;;;2.77;;
4754;SDS011;2391;47.212;7.542;2023-11-19T06:49:53;2.43;;;2.23;;
4754;SDS011;2391;47.212;7.542;2023-11-19T06:52:19;2.97;;;2.77;;
4754;SDS011;2391;47.212;7.542;2023-11-19T06:54:45;3.23;;;3.03;;
4754;SDS011;2391;47.212;7.542;2023-11-19T06:57:11;2.33;;;2.23;;
4754;SDS011;2391;47.212;7.542;2023-11-19T06:59:37;3.87;;;3.27;;
4754;SDS011;2391;47.212;7.542;2023-11-19T07:02:04;4.30;;;2.87;;
4754;SDS011;2391;47.212;7.542;2023-11-19T07:04:30;3.33;;;3.03;;
4754;SDS011;2391;47.212;7.542;2023-11-19T07:06:57;3.10;;;2.80;;
4754;SDS011;2391;47.212;7.542;2023-11-19T07:09:22;2.87;;;2.67;;
4754;SDS011;2391;47.212;7.542;2023-11-19T07:11:48;3.33;;;3.03;;
4754;SDS011;2391;47.212;7.542;2023-11-19T07:14:16;3.40;;;2.60;;
4754;SDS011;2391;47.212;7.542;2023-11-19T07:16:42;5.97;;;3.87;;
4754;SDS011;2391;47.212;7.542;2023-11-19T07:19:08;4.27;;;3.60;;
4754;SDS011;2391;47.212;7.542;2023-11-19T07:21:34;3.27;;;2.97;;
4754;SDS011;2391;47.212;7.542;2023-11-19T07:24:02;3.43;;;2.73;;
4754;SDS011;2391;47.212;7.542;2023-11-19T07:26:28;4.50;;;2.90;;
4754;SDS011;2391;47.212;7.542;2023-11-19T07:28:54;2.60;;;2.40;;
4754;SDS011;2391;47.212;7.542;2023-11-19T07:31:20;5.67;;;3.10;;
4754;SDS011;2391;47.212;7.542;2023-11-19T07:33:47;4.30;;;2.83;;
4754;SDS011;2391;47.212;7.542;2023-11-19T07:36:13;3.27;;;2.87;;
4754;SDS011;2391;47.212;7.542;2023-11-19T07:38:39;3.57;;;2.93;;
4754;SDS011;2391;47.212;7.542;2023-11-19T07:41:05;5.67;;;3.70;;
4754;SDS011;2391;47.212;7.542;2023-11-19T07:43:32;6.57;;;4.17;;
4754;SDS011;2391;47.212;7.542;2023-11-19T07:45:58;4.47;;;4.17;;
4754;SDS011;2391;47.212;7.542;2023-11-19T07:48:25;5.53;;;3.27;;
4754;SDS011;2391;47.212;7.542;2023-11-19T07:50:51;8.60;;;3.80;;
4754;SDS011;2391;47.212;7.542;2023-11-19T07:53:18;3.77;;;3.50;;
4754;SDS011;2391;47.212;7.542;2023-11-19T07:55:45;4.67;;;3.40;;
4754;SDS011;2391;47.212;7.542;2023-11-19T07:58:11;5.07;;;3.27;;
4754;SDS011;2391;47.212;7.542;2023-11-19T08:00:37;4.03;;;3.57;;
4754;SDS011;2391;47.212;7.542;2023-11-19T08:03:04;8.17;;;3.53;;
4754;SDS011;2391;47.212;7.542;2023-11-19T08:05:32;15.07;;;3.80;;
4754;SDS011;2391;47.212;7.542;2023-11-19T08:07:58;6.77;;;4.47;;
4754;SDS011;2391;47.212;7.542;2023-11-19T08:10:24;8.07;;;4.00;;
4754;SDS011;2391;47.212;7.542;2023-11-19T08:12:50;9.53;;;4.90;;
4754;SDS011;2391;47.212;7.542;2023-11-19T08:15:15;5.87;;;3.37;;
4754;SDS011;2391;47.212;7.542;2023-11-19T08:17:41;5.37;;;4.20;;
4754;SDS011;2391;47.212;7.542;2023-11-19T08:20:10;9.27;;;4.20;;
4754;SDS011;2391;47.212;7.542;2023-11-19T08:22:36;4.07;;;3.67;;
4754;SDS011;2391;47.212;7.542;2023-11-19T08:25:04;4.00;;;3.60;;
4754;SDS011;2391;47.212;7.542;2023-11-19T08:27:31;4.50;;;4.20;;
4754;SDS011;2391;47.212;7.542;2023-11-19T08:29:57;4.57;;;4.00;;
4754;SDS011;2391;47.212;7.542;2023-11-19T08:32:26;4.77;;;4.30;;
4754;SDS011;2391;47.212;7.542;2023-11-19T08:34:53;4.00;;;3.17;;
4754;SDS011;2391;47.212;7.542;2023-11-19T08:37:19;4.30;;;4.00;;
4754;SDS011;2391;47.212;7.542;2023-11-19T08:39:46;4.80;;;3.90;;
4754;SDS011;2391;47.212;7.542;2023-11-19T08:42:18;5.67;;;3.63;;
4754;SDS011;2391;47.212;7.542;2023-11-19T08:44:48;7.07;;;3.73;;
4754;SDS011;2391;47.212;7.542;2023-11-19T08:47:16;4.43;;;4.07;;
4754;SDS011;2391;47.212;7.542;2023-11-19T08:49:45;7.53;;;3.40;;
4754;SDS011;2391;47.212;7.542;2023-11-19T08:52:11;3.53;;;3.33;;
4754;SDS011;2391;47.212;7.542;2023-11-19T08:54:37;4.07;;;3.63;;
4754;SDS011;2391;47.212;7.542;2023-11-19T08:57:03;4.80;;;3.77;;
4754;SDS011;2391;47.212;7.542;2023-11-19T08:59:29;4.20;;;3.80;;
4754;SDS011;2391;47.212;7.542;2023-11-19T09:01:55;6.90;;;3.57;;
4754;SDS011;2391;47.212;7.542;2023-11-19T09:04:21;3.77;;;3.50;;
4754;SDS011;2391;47.212;7.542;2023-11-19T09:06:49;3.73;;;3.40;;
4754;SDS011;2391;47.212;7.542;2023-11-19T09:09:15;8.27;;;3.67;;
4754;SDS011;2391;47.212;7.542;2023-11-19T09:11:41;4.80;;;3.60;;
4754;SDS011;2391;47.212;7.542;2023-11-19T09:14:07;4.30;;;3.00;;
4754;SDS011;2391;47.212;7.542;2023-11-19T09:16:33;3.80;;;3.60;;
4754;SDS011;2391;47.212;7.542;2023-11-19T09:19:00;3.80;;;3.60;;
4754;SDS011;2391;47.212;7.542;2023-11-19T09:21:28;4.73;;;3.40;;
4754;SDS011;2391;47.212;7.542;2023-11-19T09:23:55;3.60;;;3.37;;
4754;SDS011;2391;47.212;7.542;2023-11-19T09:26:21;5.50;;;4.10;;
4754;SDS011;2391;47.212;7.542;2023-11-19T09:28:46;7.83;;;3.70;;
4754;SDS011;2391;47.212;7.542;2023-11-19T09:31:13;8.53;;;3.30;;
4754;SDS011;2391;47.212;7.542;2023-11-19T09:33:42;4.70;;;3.30;;
4754;SDS011;2391;47.212;7.542;2023-11-19T09:36:09;3.33;;;3.00;;
4754;SDS011;2391;47.212;7.542;2023-11-19T09:38:39;3.73;;;3.30;;
4754;SDS011;2391;47.212;7.542;2023-11-19T09:41:06;5.00;;;3.10;;
4754;SDS011;2391;47.212;7.542;2023-11-19T09:43:35;3.93;;;3.43;;
4754;SDS011;2391;47.212;7.542;2023-11-19T09:46:04;3.30;;;3.00;;
4754;SDS011;2391;47.212;7.542;2023-11-19T09:48:32;3.33;;;2.40;;
4754;SDS011;2391;47.212;7.542;2023-11-19T09:51:00;6.80;;;3.80;;
4754;SDS011;2391;47.212;7.542;2023-11-19T09:53:27;4.67;;;3.43;;
4754;SDS011;2391;47.212;7.542;2023-11-19T09:55:53;3.50;;;3.20;;
4754;SDS011;2391;47.212;7.542;2023-11-19T09:58:21;3.47;;;3.20;;
4754;SDS011;2391;47.212;7.542;2023-11-19T10:00:49;4.70;;;3.10;;
4754;SDS011;2391;47.212;7.542;2023-11-19T10:03:15;4.80;;;2.90;;
4754;SDS011;2391;47.212;7.542;2023-11-19T10:05:42;4.50;;;3.13;;
4754;SDS011;2391;47.212;7.542;2023-11-19T10:08:08;3.73;;;3.47;;
4754;SDS011;2391;47.212;7.542;2023-11-19T10:10:34;6.13;;;3.13;;
4754;SDS011;2391;47.212;7.542;2023-11-19T10:13:00;7.10;;;3.20;;
4754;SDS011;2391;47.212;7.542;2023-11-19T10:15:26;4.83;;;3.40;;
4754;SDS011;2391;47.212;7.542;2023-11-19T10:17:55;5.57;;;3.17;;
4754;SDS011;2391;47.212;7.542;2023-11-19T10:20:22;3.67;;;3.37;;
4754;SDS011;2391;47.212;7.542;2023-11-19T10:22:54;3.37;;;3.17;;
4754;SDS011;2391;47.212;7.542;2023-11-19T10:25:21;4.00;;;3.60;;
4754;SDS011;2391;47.212;7.542;2023-11-19T10:27:49;5.10;;;4.07;;
4754;SDS011;2391;47.212;7.542;2023-11-19T10:30:18;3.40;;;3.20;;
4754;SDS011;2391;47.212;7.542;2023-11-19T10:32:45;12.07;;;3.80;;
4754;SDS011;2391;47.212;7.542;2023-11-19T10:35:11;4.50;;;3.50;;
4754;SDS011;2391;47.212;7.542;2023-11-19T10:37:39;8.10;;;3.77;;
4754;SDS011;2391;47.212;7.542;2023-11-19T10:40:05;4.17;;;3.87;;
4754;SDS011;2391;47.212;7.542;2023-11-19T10:42:31;3.73;;;3.43;;
4754;SDS011;2391;47.212;7.542;2023-11-19T10:44:56;10.40;;;3.60;;
4754;SDS011;2391;47.212;7.542;2023-11-19T10:47:22;5.93;;;3.40;;
4754;SDS011;2391;47.212;7.542;2023-11-19T10:49:49;6.43;;;4.20;;
4754;SDS011;2391;47.212;7.542;2023-11-19T10:52:17;4.17;;;3.87;;
4754;SDS011;2391;47.212;7.542;2023-11-19T10:54:51;4.17;;;3.80;;
4754;SDS011;2391;47.212;7.542;2023-11-19T10:57:20;4.50;;;4.17;;
4754;SDS011;2391;47.212;7.542;2023-11-19T10:59:47;10.50;;;6.10;;
4754;SDS011;2391;47.212;7.542;2023-11-19T11:02:16;4.73;;;4.10;;
4754;SDS011;2391;47.212;7.542;2023-11-19T11:04:44;4.60;;;4.20;;
4754;SDS011;2391;47.212;7.542;2023-11-19T11:07:13;7.27;;;5.40;;
4754;SDS011;2391;47.212;7.542;2023-11-19T11:09:41;5.37;;;4.87;;
4754;SDS011;2391;47.212;7.542;2023-11-19T11:12:07;5.40;;;5.00;;
4754;SDS011;2391;47.212;7.542;2023-11-19T11:14:36;4.97;;;4.63;;
4754;SDS011;2391;47.212;7.542;2023-11-19T11:17:03;4.57;;;4.10;;
4754;SDS011;2391;47.212;7.542;2023-11-19T11:19:32;6.73;;;4.77;;
4754;SDS011;2391;47.212;7.542;2023-11-19T11:21:57;6.40;;;5.30;;
4754;SDS011;2391;47.212;7.542;2023-11-19T11:29:54;7.63;;;3.40;;
4754;SDS011;2391;47.212;7.542;2023-11-19T11:35:21;2.70;;;2.50;;
4754;SDS011;2391;47.212;7.542;2023-11-19T11:38:00;3.63;;;3.33;;
4754;SDS011;2391;47.212;7.542;2023-11-19T11:40:26;2.93;;;2.83;;
4754;SDS011;2391;47.212;7.542;2023-11-19T11:42:52;2.90;;;2.70;;
4754;SDS011;2391;47.212;7.542;2023-11-19T11:45:18;2.60;;;2.50;;
4754;SDS011;2391;47.212;7.542;2023-11-19T11:50:23;2.13;;;2.03;;
4754;SDS011;2391;47.212;7.542;2023-11-19T11:55:28;2.13;;;2.03;;
4754;SDS011;2391;47.212;7.542;2023-11-19T11:58:10;2.23;;;1.97;;
4754;SDS011;2391;47.212;7.542;2023-11-19T12:00:32;2.00;;;1.90;;
4754;SDS011;2391;47.212;7.542;2023-11-19T12:03:03;2.10;;;2.00;;
4754;SDS011;2391;47.212;7.542;2023-11-19T12:05:31;2.00;;;1.90;;
4754;SDS011;2391;47.212;7.542;2023-11-19T12:08:02;3.50;;;2.00;;
4754;SDS011;2391;47.212;7.542;2023-11-19T12:10:34;1.70;;;1.60;;
4754;SDS011;2391;47.212;7.542;2023-11-19T12:13:05;3.17;;;1.90;;
4754;SDS011;2391;47.212;7.542;2023-11-19T12:18:27;1.73;;;1.63;;
4754;SDS011;2391;47.212;7.542;2023-11-19T12:20:55;2.30;;;1.50;;
4754;SDS011;2391;47.212;7.542;2023-11-19T12:23:21;1.87;;;1.70;;
4754;SDS011;2391;47.212;7.542;2023-11-19T12:25:49;2.33;;;1.77;;
4754;SDS011;2391;47.212;7.542;2023-11-19T12:28:15;3.03;;;1.80;;
4754;SDS011;2391;47.212;7.542;2023-11-19T12:30:43;2.20;;;1.63;;
4754;SDS011;2391;47.212;7.542;2023-11-19T12:33:10;2.00;;;1.40;;
4754;SDS011;2391;47.212;7.542;2023-11-19T12:35:40;3.33;;;1.70;;
4754;SDS011;2391;47.212;7.542;2023-11-19T12:38:19;1.70;;;1.60;;
4754;SDS011;2391;47.212;7.542;2023-11-19T12:40:47;3.17;;;1.53;;
4754;SDS011;2391;47.212;7.542;2023-11-19T12:43:21;3.73;;;1.80;;
4754;SDS011;2391;47.212;7.542;2023-11-19T12:45:50;3.40;;;1.80;;
4754;SDS011;2391;47.212;7.542;2023-11-19T12:48:16;10.90;;;1.60;;
4754;SDS011;2391;47.212;7.542;2023-11-19T12:50:54;6.10;;;1.80;;
4754;SDS011;2391;47.212;7.542;2023-11-19T12:53:23;3.90;;;1.80;;
4754;SDS011;2391;47.212;7.542;2023-11-19T12:55:51;2.30;;;1.70;;
4754;SDS011;2391;47.212;7.542;2023-11-19T12:58:33;18.20;;;10.40;;
4754;SDS011;2391;47.212;7.542;2023-11-19T13:03:31;2.93;;;1.70;;
4754;SDS011;2391;47.212;7.542;2023-11-19T13:06:04;7.83;;;3.73;;
4754;SDS011;2391;47.212;7.542;2023-11-19T13:08:43;2.23;;;1.50;;
4754;SDS011;2391;47.212;7.542;2023-11-19T13:11:30;1.80;;;1.70;;
4754;SDS011;2391;47.212;7.542;2023-11-19T13:13:58;2.90;;;1.73;;
4754;SDS011;2391;47.212;7.542;2023-11-19T13:16:25;3.80;;;1.90;;
4754;SDS011;2391;47.212;7.542;2023-11-19T13:18:52;2.80;;;1.80;;
4754;SDS011;2391;47.212;7.542;2023-11-19T13:21:18;1.97;;;1.77;;
4754;SDS011;2391;47.212;7.542;2023-11-19T13:23:44;2.27;;;1.83;;
4754;SDS011;2391;47.212;7.542;2023-11-19T13:26:10;2.13;;;1.83;;
4754;SDS011;2391;47.212;7.542;2023-11-19T13:28:37;2.13;;;1.40;;
4754;SDS011;2391;47.212;7.542;2023-11-19T13:31:04;5.93;;;1.73;;
4754;SDS011;2391;47.212;7.542;2023-11-19T13:33:30;1.80;;;1.70;;
4754;SDS011;2391;47.212;7.542;2023-11-19T13:35:56;4.50;;;1.97;;
4754;SDS011;2391;47.212;7.542;2023-11-19T13:38:22;1.87;;;1.77;;
4754;SDS011;2391;47.212;7.542;2023-11-19T13:40:51;4.80;;;2.90;;
4754;SDS011;2391;47.212;7.542;2023-11-19T13:43:17;1.90;;;1.80;;
4754;SDS011;2391;47.212;7.542;2023-11-19T13:45:42;1.90;;;1.80;;
4754;SDS011;2391;47.212;7.542;2023-11-19T13:48:08;2.40;;;1.60;;
4754;SDS011;2391;47.212;7.542;2023-11-19T13:50:35;1.47;;;1.37;;
4754;SDS011;2391;47.212;7.542;2023-11-19T13:53:00;2.20;;;1.50;;
4754;SDS011;2391;47.212;7.542;2023-11-19T13:55:26;1.73;;;1.53;;
4754;SDS011;2391;47.212;7.542;2023-11-19T13:57:52;1.67;;;1.57;;
4754;SDS011;2391;47.212;7.542;2023-11-19T14:00:18;1.73;;;1.53;;
4754;SDS011;2391;47.212;7.542;2023-11-19T14:02:48;2.00;;;1.90;;
4754;SDS011;2391;47.212;7.542;2023-11-19T14:05:15;5.23;;;1.80;;
4754;SDS011;2391;47.212;7.542;2023-11-19T14:07:44;7.30;;;2.00;;
4754;SDS011;2391;47.212;7.542;2023-11-19T14:10:12;2.93;;;2.20;;
4754;SDS011;2391;47.212;7.542;2023-11-19T14:12:38;3.33;;;1.77;;
4754;SDS011;2391;47.212;7.542;2023-11-19T14:15:04;2.57;;;1.80;;
4754;SDS011;2391;47.212;7.542;2023-11-19T14:17:33;1.60;;;1.50;;
4754;SDS011;2391;47.212;7.542;2023-11-19T14:19:59;2.40;;;1.43;;
4754;SDS011;2391;47.212;7.542;2023-11-19T14:22:26;2.40;;;1.50;;
4754;SDS011;2391;47.212;7.542;2023-11-19T14:24:51;1.50;;;1.40;;
4754;SDS011;2391;47.212;7.542;2023-11-19T14:27:17;2.00;;;1.43;;
4754;SDS011;2391;47.212;7.542;2023-11-19T14:29:43;1.63;;;1.53;;
4754;SDS011;2391;47.212;7.542;2023-11-19T14:32:10;2.03;;;1.87;;
4754;SDS011;2391;47.212;7.542;2023-11-19T14:34:37;2.63;;;1.70;;
4754;SDS011;2391;47.212;7.542;2023-11-19T14:37:02;1.40;;;1.30;;
4754;SDS011;2391;47.212;7.542;2023-11-19T14:39:28;2.03;;;1.47;;
4754;SDS011;2391;47.212;7.542;2023-11-19T14:41:56;5.33;;;1.60;;
4754;SDS011;2391;47.212;7.542;2023-11-19T14:44:25;3.90;;;1.60;;
4754;SDS011;2391;47.212;7.542;2023-11-19T14:46:50;1.77;;;1.67;;
4754;SDS011;2391;47.212;7.542;2023-11-19T14:49:16;2.43;;;2.07;;
4754;SDS011;2391;47.212;7.542;2023-11-19T14:51:42;3.53;;;1.50;;
4754;SDS011;2391;47.212;7.542;2023-11-19T14:54:08;1.50;;;1.40;;
4754;SDS011;2391;47.212;7.542;2023-11-19T14:56:33;1.87;;;1.37;;
4754;SDS011;2391;47.212;7.542;2023-11-19T14:58:59;2.53;;;1.33;;
4754;SDS011;2391;47.212;7.542;2023-11-19T15:01:25;1.97;;;1.70;;
4754;SDS011;2391;47.212;7.542;2023-11-19T15:03:50;2.70;;;1.10;;
4754;SDS011;2391;47.212;7.542;2023-11-19T15:06:16;1.50;;;1.40;;
4754;SDS011;2391;47.212;7.542;2023-11-19T15:08:42;1.70;;;1.60;;
4754;SDS011;2391;47.212;7.542;2023-11-19T15:11:10;1.67;;;1.57;;
4754;SDS011;2391;47.212;7.542;2023-11-19T15:13:37;2.03;;;1.50;;
4754;SDS011;2391;47.212;7.542;2023-11-19T15:16:03;4.27;;;1.90;;
4754;SDS011;2391;47.212;7.542;2023-11-19T15:18:32;3.67;;;2.10;;
4754;SDS011;2391;47.212;7.542;2023-11-19T15:20:58;2.07;;;1.97;;
4754;SDS011;2391;47.212;7.542;2023-11-19T15:23:24;5.07;;;1.90;;
4754;SDS011;2391;47.212;7.542;2023-11-19T15:25:49;2.33;;;1.90;;
4754;SDS011;2391;47.212;7.542;2023-11-19T15:28:15;1.90;;;1.80;;
4754;SDS011;2391;47.212;7.542;2023-11-19T15:30:41;2.30;;;2.20;;
4754;SDS011;2391;47.212;7.542;2023-11-19T15:33:07;4.23;;;3.30;;